createdAt,value
2023-10-31T00:00:18.418Z,66.56
2023-10-31T00:02:44.845Z,66.32
2023-10-31T00:05:11.247Z,66.34
2023-10-31T00:07:37.711Z,66.75
2023-10-31T00:10:04.325Z,66.45
2023-10-31T00:12:30.747Z,65.51
2023-10-31T00:14:57.171Z,65.89
2023-10-31T00:17:23.653Z,65.08
2023-10-31T00:19:50.164Z,65.21
2023-10-31T00:22:16.617Z,64.68
2023-10-31T00:24:43.450Z,65.96
2023-10-31T00:27:10.040Z,65.13
2023-10-31T00:29:36.459Z,64.78
2023-10-31T00:32:04.067Z,65.36
2023-10-31T00:34:32.415Z,65.40
2023-10-31T00:36:58.813Z,65.75
2023-10-31T00:39:25.175Z,65.91
2023-10-31T00:41:51.524Z,66.78
2023-10-31T00:44:17.873Z,66.25
2023-10-31T00:46:44.992Z,65.24
2023-10-31T00:49:11.461Z,66.82
2023-10-31T00:51:37.856Z,66.75
2023-10-31T00:54:04.319Z,66.64
2023-10-31T00:56:30.683Z,66.98
2023-10-31T00:58:57.099Z,66.53
2023-10-31T01:01:23.607Z,67.70
2023-10-31T01:03:50.011Z,67.62
2023-10-31T01:06:16.444Z,68.25
2023-10-31T01:08:42.855Z,67.95
2023-10-31T01:11:09.414Z,67.93
2023-10-31T01:13:35.804Z,67.96
2023-10-31T01:16:02.398Z,68.15
2023-10-31T01:18:28.831Z,68.92
2023-10-31T01:20:55.214Z,68.89
2023-10-31T01:23:21.658Z,69.08
2023-10-31T01:25:48.042Z,69.76
2023-10-31T01:28:14.421Z,69.55
2023-10-31T01:30:40.763Z,69.47
2023-10-31T01:33:07.248Z,69.76
2023-10-31T01:35:34.192Z,69.08
2023-10-31T01:38:00.607Z,68.86
2023-10-31T01:40:27.052Z,68.47
2023-10-31T01:42:53.438Z,68.49
2023-10-31T01:45:20.005Z,68.19
2023-10-31T01:47:49.373Z,67.61
2023-10-31T01:50:16.064Z,68.20
2023-10-31T01:52:42.827Z,67.88
2023-10-31T01:55:10.313Z,67.79
2023-10-31T01:57:36.750Z,67.46
2023-10-31T02:00:03.296Z,67.09
2023-10-31T02:02:32.905Z,68.18
2023-10-31T02:05:00.407Z,67.43
2023-10-31T02:07:26.806Z,68.27
2023-10-31T02:09:53.207Z,67.75
2023-10-31T02:12:36.260Z,67.01
2023-10-31T02:15:03.258Z,67.07
2023-10-31T02:17:30.013Z,66.76
2023-10-31T02:19:56.732Z,66.29
2023-10-31T02:22:24.069Z,66.34
2023-10-31T02:24:50.458Z,65.88
2023-10-31T02:27:16.881Z,66.21
2023-10-31T02:29:43.314Z,66.98
2023-10-31T02:32:09.774Z,66.25
2023-10-31T02:34:36.242Z,66.31
2023-10-31T02:37:02.779Z,66.41
2023-10-31T02:39:29.131Z,66.60
2023-10-31T02:41:55.554Z,66.21
2023-10-31T02:44:21.923Z,66.13
2023-10-31T02:46:48.310Z,65.99
2023-10-31T02:49:14.720Z,65.83
2023-10-31T02:51:41.331Z,66.10
2023-10-31T02:54:07.719Z,65.62
2023-10-31T02:56:34.146Z,66.03
2023-10-31T02:59:03.716Z,66.09
2023-10-31T03:01:30.629Z,66.01
2023-10-31T03:03:57.227Z,66.27
2023-10-31T03:06:23.670Z,65.87
2023-10-31T03:08:50.093Z,65.52
2023-10-31T03:11:26.960Z,65.82
2023-10-31T03:13:54.844Z,65.68
2023-10-31T03:16:21.536Z,64.87
2023-10-31T03:18:48.103Z,65.20
2023-10-31T03:21:18.747Z,65.00
2023-10-31T03:23:50.819Z,64.90
2023-10-31T03:26:18.045Z,64.54
2023-10-31T03:28:45.602Z,64.71
2023-10-31T03:31:13.297Z,65.20
2023-10-31T03:33:40.104Z,63.44
2023-10-31T03:36:06.834Z,64.62
2023-10-31T03:38:33.647Z,65.47
2023-10-31T03:41:00.139Z,65.11
2023-10-31T03:43:26.578Z,64.82
2023-10-31T03:45:53.507Z,65.48
2023-10-31T03:48:19.922Z,66.13
2023-10-31T03:50:46.359Z,66.19
2023-10-31T03:53:12.764Z,66.18
2023-10-31T03:55:39.264Z,66.30
2023-10-31T03:58:06.810Z,66.68
2023-10-31T04:00:33.240Z,66.61
2023-10-31T04:02:59.708Z,66.34
2023-10-31T04:05:26.220Z,66.24
2023-10-31T04:07:52.691Z,66.26
2023-10-31T04:10:20.076Z,66.53
2023-10-31T04:12:46.817Z,66.85
2023-10-31T04:15:13.320Z,66.08
2023-10-31T04:17:39.763Z,67.12
2023-10-31T04:20:07.154Z,67.13
2023-10-31T04:22:33.619Z,67.15
2023-10-31T04:25:00.000Z,66.54
2023-10-31T04:27:26.364Z,67.29
2023-10-31T04:29:52.741Z,67.98
2023-10-31T04:32:19.122Z,68.93
2023-10-31T04:34:45.558Z,68.56
2023-10-31T04:37:11.978Z,66.89
2023-10-31T04:39:38.355Z,68.09
2023-10-31T04:42:04.954Z,67.02
2023-10-31T04:44:31.369Z,65.46
2023-10-31T04:46:57.840Z,65.89
2023-10-31T04:49:24.279Z,64.46
2023-10-31T04:51:50.738Z,64.83
2023-10-31T04:54:17.114Z,65.63
2023-10-31T04:56:43.576Z,65.37
2023-10-31T04:59:10.250Z,64.12
2023-10-31T05:01:36.672Z,63.42
2023-10-31T05:04:11.163Z,63.04
2023-10-31T05:06:39.742Z,63.84
2023-10-31T05:09:06.184Z,68.25
2023-10-31T05:11:33.181Z,65.89
2023-10-31T05:13:59.986Z,65.76
2023-10-31T05:16:26.413Z,63.69
2023-10-31T05:18:53.653Z,63.22
2023-10-31T05:21:21.847Z,63.80
2023-10-31T05:23:48.228Z,63.35
2023-10-31T05:26:14.655Z,62.98
2023-10-31T05:28:41.046Z,62.45
2023-10-31T05:31:07.531Z,61.94
2023-10-31T05:33:33.911Z,62.06
2023-10-31T05:36:00.637Z,61.53
2023-10-31T05:38:26.993Z,61.48
2023-10-31T05:40:53.479Z,62.67
2023-10-31T05:43:19.863Z,63.46
2023-10-31T05:45:46.297Z,63.43
2023-10-31T05:48:15.672Z,62.89
2023-10-31T05:50:43.410Z,64.07
2023-10-31T05:53:09.886Z,64.71
2023-10-31T05:55:39.904Z,64.02
2023-10-31T05:58:08.800Z,64.59
2023-10-31T06:00:38.918Z,65.37
2023-10-31T06:03:05.795Z,64.99
2023-10-31T06:05:32.268Z,65.67
2023-10-31T06:07:58.687Z,65.63
2023-10-31T06:10:25.085Z,64.62
2023-10-31T06:12:51.464Z,65.28
2023-10-31T06:15:17.819Z,66.34
2023-10-31T06:17:44.296Z,65.78
2023-10-31T06:20:11.433Z,65.67
2023-10-31T06:22:37.830Z,64.88
2023-10-31T06:25:04.602Z,65.25
2023-10-31T06:27:30.996Z,64.72
2023-10-31T06:30:11.122Z,65.08
2023-10-31T06:32:43.780Z,65.53
2023-10-31T06:35:10.256Z,65.33
2023-10-31T06:37:37.165Z,64.19
2023-10-31T06:40:04.904Z,64.74
2023-10-31T06:42:31.685Z,65.57
2023-10-31T06:44:58.072Z,63.14
2023-10-31T06:47:24.699Z,65.17
2023-10-31T06:49:51.167Z,65.29
2023-10-31T06:52:17.531Z,64.92
2023-10-31T06:54:44.381Z,62.79
2023-10-31T06:57:10.785Z,63.96
2023-10-31T06:59:37.276Z,62.26
2023-10-31T07:02:03.791Z,64.46
2023-10-31T07:04:30.414Z,63.91
2023-10-31T07:06:58.668Z,64.62
2023-10-31T07:09:26.888Z,63.79
2023-10-31T07:11:54.098Z,65.55
2023-10-31T07:14:20.870Z,65.87
2023-10-31T07:16:49.832Z,65.65
2023-10-31T07:19:16.594Z,66.01
2023-10-31T07:21:42.966Z,66.45
2023-10-31T07:24:10.032Z,65.17
2023-10-31T07:26:36.990Z,66.02
2023-10-31T07:29:03.652Z,66.17
2023-10-31T07:31:30.093Z,65.49
2023-10-31T07:33:57.203Z,65.78
2023-10-31T07:36:23.665Z,65.96
2023-10-31T07:38:50.034Z,65.41
2023-10-31T07:41:17.081Z,64.93
2023-10-31T07:43:48.222Z,64.60
2023-10-31T07:46:14.702Z,64.89
2023-10-31T07:48:43.881Z,63.30
2023-10-31T07:51:10.252Z,64.15
2023-10-31T07:53:36.628Z,62.41
2023-10-31T07:56:03.318Z,62.34
2023-10-31T07:58:29.683Z,64.13
2023-10-31T08:00:56.079Z,63.52
2023-10-31T08:03:22.583Z,64.03
2023-10-31T08:05:49.035Z,63.85
2023-10-31T08:08:15.430Z,63.43
2023-10-31T08:10:41.920Z,62.86
2023-10-31T08:13:08.358Z,64.35
2023-10-31T08:15:34.784Z,64.07
2023-10-31T08:18:01.198Z,64.13
2023-10-31T08:20:27.777Z,63.91
2023-10-31T08:22:54.236Z,62.19
2023-10-31T08:25:20.587Z,62.77
2023-10-31T08:27:47.674Z,62.25
2023-10-31T08:30:14.209Z,62.02
2023-10-31T08:32:40.698Z,61.74
2023-10-31T08:35:07.465Z,62.60
2023-10-31T08:37:33.939Z,61.91
2023-10-31T08:40:00.292Z,61.79
2023-10-31T08:42:26.687Z,61.71
2023-10-31T08:44:53.048Z,61.16
2023-10-31T08:47:19.535Z,60.63
2023-10-31T08:49:46.158Z,59.69
2023-10-31T08:52:12.553Z,58.94
2023-10-31T08:54:38.906Z,59.45
2023-10-31T08:57:05.564Z,59.04
2023-10-31T08:59:32.011Z,59.43
2023-10-31T09:01:58.434Z,59.89
2023-10-31T09:04:25.000Z,60.09
2023-10-31T09:06:51.400Z,59.17
2023-10-31T09:09:17.844Z,59.07
2023-10-31T09:11:44.254Z,58.37
2023-10-31T09:14:10.916Z,58.83
2023-10-31T09:16:37.514Z,59.45
2023-10-31T09:19:04.006Z,59.30
2023-10-31T09:21:30.387Z,59.60
2023-10-31T09:23:56.838Z,59.05
2023-10-31T09:26:23.254Z,58.13
2023-10-31T09:28:52.369Z,59.03
2023-10-31T09:31:19.331Z,59.70
2023-10-31T09:33:49.160Z,58.58
2023-10-31T09:36:15.898Z,58.72
2023-10-31T09:38:42.542Z,58.26
2023-10-31T09:41:09.063Z,59.00
2023-10-31T09:43:35.626Z,58.79
2023-10-31T09:46:03.376Z,58.20
2023-10-31T09:48:30.225Z,57.43
2023-10-31T09:50:57.600Z,56.98
2023-10-31T09:53:25.231Z,56.86
2023-10-31T09:55:54.770Z,57.45
2023-10-31T09:58:21.146Z,57.87
2023-10-31T10:00:47.524Z,57.45
2023-10-31T10:03:19.480Z,56.15
2023-10-31T10:05:47.567Z,55.19
2023-10-31T10:08:15.757Z,55.45
2023-10-31T10:10:42.433Z,55.58
2023-10-31T10:13:09.977Z,55.20
2023-10-31T10:15:49.279Z,55.23
2023-10-31T10:18:36.394Z,56.24
2023-10-31T10:21:04.561Z,56.82
2023-10-31T10:23:32.831Z,55.41
2023-10-31T10:26:01.531Z,54.79
2023-10-31T10:28:30.396Z,54.18
2023-10-31T10:30:56.810Z,54.50
2023-10-31T10:33:23.800Z,54.32
2023-10-31T10:35:50.159Z,52.92
2023-10-31T10:38:18.399Z,53.46
2023-10-31T10:40:46.877Z,53.85
2023-10-31T10:43:19.771Z,54.18
2023-10-31T10:45:50.304Z,54.69
2023-10-31T10:48:18.098Z,53.12
2023-10-31T10:50:47.612Z,53.48
2023-10-31T10:53:23.170Z,52.74
2023-10-31T10:55:53.666Z,53.54
2023-10-31T10:58:34.859Z,54.35
2023-10-31T11:01:03.356Z,54.78
2023-10-31T11:03:31.102Z,56.37
2023-10-31T11:05:58.421Z,54.80
2023-10-31T11:08:26.364Z,53.46
2023-10-31T11:10:55.204Z,53.83
2023-10-31T11:13:22.100Z,54.18
2023-10-31T11:15:51.447Z,54.17
2023-10-31T11:18:18.795Z,53.76
2023-10-31T11:20:46.249Z,53.98
2023-10-31T11:23:12.672Z,56.01
2023-10-31T11:25:44.882Z,55.73
2023-10-31T11:28:16.321Z,55.85
2023-10-31T11:30:44.255Z,56.04
2023-10-31T11:33:17.323Z,54.54
2023-10-31T11:35:46.713Z,56.10
2023-10-31T11:38:13.746Z,56.38
2023-10-31T11:40:45.904Z,55.44
2023-10-31T11:43:12.736Z,55.77
2023-10-31T11:45:48.633Z,54.03
2023-10-31T11:48:16.334Z,52.73
2023-10-31T11:50:43.149Z,52.64
2023-10-31T11:53:14.505Z,52.43
2023-10-31T11:55:43.274Z,52.49
2023-10-31T11:58:19.544Z,50.94
2023-10-31T12:00:51.873Z,49.82
2023-10-31T12:03:20.612Z,48.19
2023-10-31T12:06:03.367Z,47.95
2023-10-31T12:08:32.101Z,50.71
2023-10-31T12:11:07.962Z,50.03
2023-10-31T12:13:37.790Z,48.53
2023-10-31T12:16:06.574Z,48.76
2023-10-31T12:18:34.364Z,51.02
2023-10-31T12:21:01.554Z,50.94
2023-10-31T12:23:28.495Z,50.70
2023-10-31T12:25:58.609Z,49.76
2023-10-31T12:28:26.368Z,50.29
2023-10-31T12:30:55.643Z,49.81
2023-10-31T12:33:23.237Z,49.61
2023-10-31T12:35:50.509Z,48.49
2023-10-31T12:38:17.229Z,48.43
2023-10-31T12:40:47.340Z,49.28
2023-10-31T12:43:13.946Z,48.76
2023-10-31T12:45:40.336Z,49.74
2023-10-31T12:48:11.215Z,48.49
2023-10-31T12:50:40.190Z,49.54
2023-10-31T12:53:07.761Z,48.19
2023-10-31T12:55:42.372Z,47.26
2023-10-31T12:58:11.349Z,47.17
2023-10-31T13:00:38.763Z,47.36
2023-10-31T13:03:08.048Z,48.60
2023-10-31T13:05:35.158Z,48.06
2023-10-31T13:08:07.316Z,51.07
2023-10-31T13:10:34.242Z,51.65
2023-10-31T13:13:00.810Z,51.54
2023-10-31T13:15:27.257Z,50.87
2023-10-31T13:17:53.961Z,51.41
2023-10-31T13:20:22.407Z,50.76
2023-10-31T13:22:49.307Z,50.78
2023-10-31T13:25:17.084Z,51.54
2023-10-31T13:27:52.269Z,49.35
2023-10-31T13:30:18.832Z,50.65
2023-10-31T13:32:46.065Z,50.06
2023-10-31T13:35:13.520Z,50.89
2023-10-31T13:37:40.017Z,52.25
2023-10-31T13:40:11.349Z,51.10
2023-10-31T13:42:37.756Z,51.68
2023-10-31T13:45:07.419Z,51.49
2023-10-31T13:47:34.868Z,51.82
2023-10-31T13:50:01.418Z,52.54
2023-10-31T13:52:29.569Z,53.26
2023-10-31T13:54:55.977Z,52.84
2023-10-31T13:57:23.522Z,52.56
2023-10-31T13:59:51.724Z,51.86
2023-10-31T14:02:18.622Z,50.70
2023-10-31T14:04:45.616Z,51.71
2023-10-31T14:07:21.458Z,52.10
2023-10-31T14:09:49.704Z,51.49
2023-10-31T14:12:16.332Z,52.37
2023-10-31T14:14:42.743Z,51.68
2023-10-31T14:17:09.137Z,51.95
2023-10-31T14:19:40.036Z,51.34
2023-10-31T14:22:06.870Z,51.36
2023-10-31T14:24:33.272Z,51.38
2023-10-31T14:27:00.307Z,51.32
2023-10-31T14:29:26.743Z,50.98
2023-10-31T14:31:55.622Z,50.98
2023-10-31T14:34:22.208Z,51.34
2023-10-31T14:36:48.579Z,52.18
2023-10-31T14:39:15.080Z,52.04
2023-10-31T14:41:41.526Z,52.61
2023-10-31T14:44:09.362Z,52.58
2023-10-31T14:46:35.998Z,53.84
2023-10-31T14:49:02.428Z,53.48
2023-10-31T14:51:28.793Z,52.92
2023-10-31T14:53:55.344Z,52.69
2023-10-31T14:56:22.998Z,52.87
2023-10-31T14:58:49.492Z,53.16
2023-10-31T15:01:17.246Z,52.94
2023-10-31T15:03:43.901Z,52.77
2023-10-31T15:06:10.733Z,52.62
2023-10-31T15:08:37.325Z,52.92
2023-10-31T15:11:04.061Z,53.84
2023-10-31T15:13:30.535Z,53.20
2023-10-31T15:15:56.962Z,53.40
2023-10-31T15:18:23.767Z,53.33
2023-10-31T15:20:50.342Z,54.06
2023-10-31T15:23:16.909Z,54.38
2023-10-31T15:25:43.384Z,55.37
2023-10-31T15:28:09.912Z,55.46
2023-10-31T15:30:36.328Z,55.14
2023-10-31T15:33:02.868Z,55.69
2023-10-31T15:35:29.396Z,56.28
2023-10-31T15:37:55.886Z,55.86
2023-10-31T15:40:22.337Z,55.31
2023-10-31T15:42:48.730Z,55.26
2023-10-31T15:45:15.286Z,54.87
2023-10-31T15:47:41.743Z,55.80
2023-10-31T15:50:08.961Z,55.78
2023-10-31T15:52:38.004Z,56.21
2023-10-31T15:55:05.283Z,55.89
2023-10-31T15:57:31.657Z,55.42
2023-10-31T15:59:59.179Z,54.93
2023-10-31T16:02:26.900Z,54.89
2023-10-31T16:04:53.564Z,56.02
2023-10-31T16:07:21.422Z,57.73
2023-10-31T16:09:47.844Z,57.83
2023-10-31T16:12:15.619Z,57.77
2023-10-31T16:14:42.472Z,58.37
2023-10-31T16:17:09.109Z,59.35
2023-10-31T16:19:35.958Z,59.24
2023-10-31T16:22:03.059Z,57.78
2023-10-31T16:24:29.550Z,58.21
2023-10-31T16:26:55.947Z,57.24
2023-10-31T16:29:22.409Z,57.59
2023-10-31T16:31:49.313Z,56.82
2023-10-31T16:34:16.031Z,57.42
2023-10-31T16:36:42.420Z,57.03
2023-10-31T16:39:08.969Z,57.84
2023-10-31T16:41:35.447Z,58.10
2023-10-31T16:44:01.907Z,61.55
2023-10-31T16:46:28.478Z,62.94
2023-10-31T16:48:54.839Z,64.84
2023-10-31T16:51:22.230Z,67.52
2023-10-31T16:53:51.250Z,68.12
2023-10-31T16:56:18.208Z,68.59
2023-10-31T16:58:46.881Z,68.26
2023-10-31T17:01:16.683Z,68.79
2023-10-31T17:03:43.555Z,68.19
2023-10-31T17:06:12.163Z,68.85
2023-10-31T17:08:39.947Z,68.46
2023-10-31T17:11:07.752Z,69.14
2023-10-31T17:13:35.333Z,70.23
2023-10-31T17:16:03.293Z,70.87
2023-10-31T17:18:30.763Z,70.35
2023-10-31T17:20:57.899Z,70.15
2023-10-31T17:23:24.743Z,70.72
2023-10-31T17:25:53.079Z,70.90
2023-10-31T17:28:20.029Z,71.43
2023-10-31T17:30:46.737Z,69.99
2023-10-31T17:33:13.925Z,70.25
2023-10-31T17:35:40.994Z,69.39
2023-10-31T17:38:07.819Z,69.92
2023-10-31T17:40:36.150Z,69.61
2023-10-31T17:43:02.654Z,70.13
2023-10-31T17:45:29.096Z,70.23
2023-10-31T17:47:57.456Z,68.89
2023-10-31T17:50:24.169Z,68.98
2023-10-31T17:52:50.660Z,68.69
2023-10-31T17:55:20.116Z,67.95
2023-10-31T17:57:46.552Z,68.50
2023-10-31T18:00:13.487Z,68.25
2023-10-31T18:02:39.950Z,67.68
2023-10-31T18:05:09.946Z,67.04
2023-10-31T18:07:36.536Z,67.26
2023-10-31T18:10:03.072Z,67.15
2023-10-31T18:12:29.483Z,67.83
2023-10-31T18:14:56.024Z,68.33
2023-10-31T18:17:22.415Z,69.08
2023-10-31T18:19:48.827Z,69.45
2023-10-31T18:22:15.991Z,69.11
2023-10-31T18:24:43.755Z,68.97
2023-10-31T18:27:10.143Z,69.51
2023-10-31T18:29:36.735Z,69.98
2023-10-31T18:32:04.481Z,70.03
2023-10-31T18:34:31.141Z,69.56
2023-10-31T18:36:57.610Z,70.13
2023-10-31T18:39:24.020Z,71.07
2023-10-31T18:41:59.946Z,69.69
2023-10-31T18:44:42.204Z,69.73
2023-10-31T18:47:13.612Z,70.35
2023-10-31T18:49:40.186Z,69.79
2023-10-31T18:52:06.872Z,69.61
2023-10-31T18:54:33.402Z,69.31
2023-10-31T18:56:59.860Z,68.14
2023-10-31T18:59:26.793Z,68.72
2023-10-31T19:01:59.447Z,68.21
2023-10-31T19:04:26.842Z,69.49
2023-10-31T19:06:53.388Z,69.29
2023-10-31T19:09:20.686Z,69.25
2023-10-31T19:11:50.346Z,69.91
2023-10-31T19:14:17.126Z,69.34
2023-10-31T19:16:43.547Z,68.83
2023-10-31T19:19:10.113Z,68.95
2023-10-31T19:21:37.144Z,68.55
2023-10-31T19:24:04.058Z,69.66
2023-10-31T19:26:30.466Z,69.46
2023-10-31T19:28:56.865Z,69.24
2023-10-31T19:31:23.328Z,68.72
2023-10-31T19:33:51.048Z,68.47
2023-10-31T19:36:18.350Z,68.72
2023-10-31T19:38:44.821Z,69.03
2023-10-31T19:41:11.360Z,68.75
2023-10-31T19:43:37.781Z,67.67
2023-10-31T19:46:05.057Z,68.97
2023-10-31T19:48:31.599Z,68.17
2023-10-31T19:50:58.031Z,67.99
2023-10-31T19:53:24.761Z,68.39
2023-10-31T19:55:51.260Z,68.48
2023-10-31T19:58:19.706Z,69.09
2023-10-31T20:00:46.114Z,68.77
2023-10-31T20:03:13.701Z,68.37
2023-10-31T20:05:40.354Z,68.92
2023-10-31T20:08:06.862Z,68.29
2023-10-31T20:10:33.332Z,68.36
2023-10-31T20:12:59.762Z,68.00
2023-10-31T20:15:26.271Z,68.44
2023-10-31T20:17:52.702Z,68.51
2023-10-31T20:20:19.143Z,68.79
2023-10-31T20:22:45.593Z,68.83
2023-10-31T20:25:12.486Z,68.41
2023-10-31T20:27:38.896Z,68.45
2023-10-31T20:30:06.143Z,69.74
2023-10-31T20:32:35.362Z,69.88
2023-10-31T20:35:02.063Z,70.13
2023-10-31T20:37:28.482Z,70.56
2023-10-31T20:39:54.874Z,71.34
2023-10-31T20:42:21.297Z,71.97
2023-10-31T20:44:48.107Z,72.72
2023-10-31T20:47:14.615Z,71.72
2023-10-31T20:49:41.289Z,72.61
2023-10-31T20:52:07.703Z,72.94
2023-10-31T20:54:35.412Z,73.27
2023-10-31T20:57:01.975Z,73.04
2023-10-31T20:59:28.376Z,73.44
2023-10-31T21:01:54.823Z,73.76
2023-10-31T21:04:21.716Z,72.94
2023-10-31T21:06:48.115Z,73.55
2023-10-31T21:09:15.719Z,72.83
2023-10-31T21:11:42.244Z,74.42
2023-10-31T21:14:08.969Z,74.34
2023-10-31T21:16:35.421Z,73.36
2023-10-31T21:19:01.826Z,74.31
2023-10-31T21:21:28.257Z,74.23
2023-10-31T21:23:54.650Z,74.60
2023-10-31T21:26:21.615Z,74.79
2023-10-31T21:28:48.260Z,72.57
2023-10-31T21:31:15.245Z,74.46
2023-10-31T21:33:44.849Z,72.87
2023-10-31T21:36:12.047Z,71.66
2023-10-31T21:38:39.018Z,72.89
2023-10-31T21:41:08.785Z,73.10
2023-10-31T21:43:35.537Z,73.74
2023-10-31T21:46:02.557Z,72.82
2023-10-31T21:48:28.990Z,74.31
2023-10-31T21:50:57.419Z,73.57
2023-10-31T21:57:04.447Z,73.23
2023-10-31T21:59:31.415Z,73.04
2023-10-31T22:01:57.822Z,73.00
2023-10-31T22:04:24.686Z,73.63
2023-10-31T22:06:51.125Z,73.99
2023-10-31T22:09:17.548Z,73.88
2023-10-31T22:11:44.388Z,74.04
2023-10-31T22:14:10.977Z,74.36
2023-10-31T22:16:37.389Z,73.76
2023-10-31T22:19:05.425Z,73.81
2023-10-31T22:21:31.880Z,73.47
2023-10-31T22:23:58.299Z,73.62
2023-10-31T22:26:24.707Z,73.10
2023-10-31T22:28:51.120Z,72.77
2023-10-31T22:31:17.583Z,72.18
2023-10-31T22:33:44.989Z,73.06
2023-10-31T22:36:12.582Z,72.77
2023-10-31T22:38:39.412Z,72.75
2023-10-31T22:41:06.634Z,72.50
2023-10-31T22:43:34.043Z,71.59
2023-10-31T22:46:00.688Z,72.35
2023-10-31T22:48:27.373Z,71.03
2023-10-31T22:50:53.815Z,72.17
2023-10-31T22:53:21.619Z,72.46
2023-10-31T22:55:48.148Z,72.37
2023-10-31T22:58:14.762Z,71.06
2023-10-31T23:00:41.617Z,71.48
2023-10-31T23:03:08.354Z,72.37
2023-10-31T23:05:35.294Z,72.07
2023-10-31T23:08:01.810Z,72.25
2023-10-31T23:10:28.220Z,71.73
2023-10-31T23:12:56.567Z,71.53
2023-10-31T23:15:23.109Z,72.34
2023-10-31T23:17:52.973Z,71.20
2023-10-31T23:20:19.883Z,71.67
2023-10-31T23:22:46.767Z,72.26
2023-10-31T23:25:13.159Z,70.88
2023-10-31T23:27:42.876Z,70.91
2023-10-31T23:30:10.196Z,72.08
2023-10-31T23:32:36.794Z,71.62
2023-10-31T23:35:03.433Z,71.79
2023-10-31T23:37:29.877Z,72.34
2023-10-31T23:39:58.278Z,73.06
2023-10-31T23:42:24.694Z,71.46
2023-10-31T23:44:51.104Z,71.36
2023-10-31T23:47:17.518Z,70.74
2023-10-31T23:49:43.916Z,70.59
2023-10-31T23:52:10.919Z,69.73
2023-10-31T23:54:37.338Z,70.23
2023-10-31T23:57:03.951Z,70.32
2023-10-31T23:59:30.745Z,70.48
